Lucky Thirteen — WDD8654 — position and weather

sailwx.info

Track history (hours):
 
Tides and Currents Weather Stations Pressure Air Temp Water Temp Dewpoint Dewpoint Depression Visibility Wind Speed Wind Dir Waves Ship Positions

Lucky Thirteen

Owner: Kristine L Inc., Barnegat Light, NJ. More information available from US FCC via Universal Licensing System and Coast Guard Vessel Documentation Center.

Last reported at 2016-Jul-20 11:27 UTC. Time now 2016-Jul-24 08:47 UTC.
Position N 39°46' W 073°57'.

Length 23 m.

Type: Fishing. MMSI: 367300990.

Date/timePositionNaut miles runAvg speedWind from/ knotsBaromVisibWave heightAir tempDewpointWater temp
2016-Jul-20 11:27N 39°46' W 073°57'7 7.8
2016-Jul-20 10:32N 39°46' W 074°06'1 0.5
2016-Jul-20 08:28N 39°45' W 074°07'0 0.0
2016-Jul-20 06:28N 39°45' W 074°07'0 0.0
2016-Jul-20 05:22N 39°45' W 074°07'0 0.0
2016-Jul-20 04:28N 39°45' W 074°07'0 0.0
2016-Jul-20 02:28N 39°45' W 074°07'0 0.0
2016-Jul-19 19:28N 39°45' W 074°07'0 0.0
2016-Jul-19 18:28N 39°45' W 074°07'0 0.0
2016-Jul-19 17:16N 39°45' W 074°07'0 0.0
2016-Jul-19 16:28N 39°45' W 074°07'0 0.0
2016-Jul-19 15:28N 39°45' W 074°07'0 0.0
2016-Jul-19 14:28N 39°45' W 074°07'0 0.0
2016-Jul-19 12:28N 39°45' W 074°07'0 0.0
2016-Jul-19 11:33N 39°45' W 074°07'1 0.3
2016-Jul-19 09:33N 39°46' W 074°07'8 7.8
2016-Jul-19 08:30N 39°47' W 073°56'7 7.0
2016-Jul-19 07:33N 39°47' W 073°48'7 0.4
2016-Jul-18 12:25N 39°47' W 073°57'7 7.6
2016-Jul-18 11:30N 39°46' W 074°06'1 1.1
2016-Jul-18 10:27N 39°45' W 074°07'0 0.0
2016-Jul-18 09:33N 39°45' W 074°07'0 0.0
2016-Jul-18 08:33N 39°45' W 074°07'0 0.0
2016-Jul-18 07:21N 39°45' W 074°07'0 0.0
2016-Jul-18 06:15N 39°45' W 074°07'0 0.0
2016-Jul-18 05:33N 39°45' W 074°07'0 0.0
2016-Jul-18 04:33N 39°45' W 074°07'0 0.0
2016-Jul-18 03:27N 39°45' W 074°07'0 0.0
2016-Jul-18 02:33N 39°45' W 074°07'0 0.0
2016-Jul-17 21:03N 39°45' W 074°07'0 0.0
2016-Jul-17 20:03N 39°45' W 074°07'0 0.0
2016-Jul-17 19:33N 39°45' W 074°07'0 0.0
2016-Jul-17 18:21N 39°45' W 074°07'0 0.0
2016-Jul-17 16:27N 39°45' W 074°07'0 0.0
2016-Jul-17 15:27N 39°45' W 074°07'0 0.0
2016-Jul-17 13:21N 39°45' W 074°07'0 0.0
2016-Jul-17 11:04N 39°45' W 074°07'0 0.0
2016-Jul-17 09:33N 39°45' W 074°07'0 0.0
2016-Jul-17 08:22N 39°45' W 074°07'0 0.0
2016-Jul-17 07:04N 39°45' W 074°07'0 0.0
2016-Jul-17 06:16N 39°45' W 074°07'0 0.0
2016-Jul-17 04:28N 39°45' W 074°07'0 0.0
2016-Jul-17 03:16N 39°45' W 074°07'0 0.0
2016-Jul-17 02:16N 39°45' W 074°07'0 0.0
2016-Jul-17 01:22N 39°45' W 074°07'0 0.0
2016-Jul-17 00:04N 39°45' W 074°07'0 0.0
2016-Jul-16 22:22N 39°45' W 074°07'0 0.0
2016-Jul-16 21:28N 39°45' W 074°07'0 0.0
2016-Jul-16 20:28N 39°45' W 074°07'0 0.0
2016-Jul-16 19:16N 39°45' W 074°07'0 0.0
2016-Jul-16 18:28N 39°45' W 074°07'0 0.0
2016-Jul-16 17:28N 39°45' W 074°07'0 0.0
2016-Jul-16 15:04N 39°45' W 074°07'0 0.0
2016-Jul-16 14:22N 39°45' W 074°07'0 0.0
2016-Jul-16 13:28N 39°45' W 074°07'0 0.0
2016-Jul-16 12:28N 39°45' W 074°07'0 0.0
2016-Jul-16 11:28N 39°45' W 074°07'0 0.0
2016-Jul-16 10:28N 39°45' W 074°07'0 0.0
2016-Jul-16 09:28N 39°45' W 074°07'0 0.0
2016-Jul-16 08:28N 39°45' W 074°07'0 0.0
2016-Jul-16 07:22N 39°45' W 074°07'0 0.0
2016-Jul-16 06:30N 39°45' W 074°07'9 4.5
2016-Jul-16 04:31N 39°45' W 073°55'4 0.2
2016-Jul-15 10:32N 39°48' W 073°52'9 8.5
2016-Jul-15 09:29N 39°46' W 074°04'3 2.5
2016-Jul-15 08:25N 39°45' W 074°07'0 0.0
2016-Jul-15 07:31N 39°45' W 074°07'0 0.0
2016-Jul-15 06:19N 39°45' W 074°07'0 0.0
2016-Jul-15 05:31N 39°45' W 074°07'0 0.0
2016-Jul-15 04:31N 39°45' W 074°07'0 0.0
2016-Jul-15 03:19N 39°45' W 074°07'0 0.0
2016-Jul-15 02:07N 39°45' W 074°07'0 0.0
2016-Jul-15 01:31N 39°45' W 074°07'0 0.0
2016-Jul-15 00:19N 39°45' W 074°07'0 0.0
2016-Jul-14 23:25N 39°45' W 074°07'0 0.0
2016-Jul-14 22:25N 39°45' W 074°07'0 0.0
2016-Jul-14 21:31N 39°45' W 074°07'0 0.0
2016-Jul-14 20:31N 39°45' W 074°07'0 0.0
2016-Jul-14 19:13N 39°45' W 074°07'0 0.0
2016-Jul-14 18:31N 39°45' W 074°07'0 0.0
2016-Jul-14 17:31N 39°45' W 074°07'0 0.0
2016-Jul-14 16:07N 39°45' W 074°07'0 0.0
2016-Jul-14 15:31N 39°45' W 074°07'0 0.0
2016-Jul-14 14:25N 39°45' W 074°07'0 0.0
2016-Jul-14 13:31N 39°45' W 074°07'0 0.0
2016-Jul-14 12:19N 39°45' W 074°07'0 0.0
2016-Jul-14 11:13N 39°45' W 074°07'0 0.0
2016-Jul-14 10:19N 39°45' W 074°07'0 0.0
2016-Jul-14 09:31N 39°45' W 074°07'0 0.0
2016-Jul-14 08:31N 39°45' W 074°07'0 0.0
2016-Jul-14 07:25N 39°45' W 074°07'0 0.0
2016-Jul-14 06:31N 39°45' W 074°07'0 0.0
2016-Jul-14 05:31N 39°45' W 074°07'0 0.0
2016-Jul-14 04:31N 39°45' W 074°07'0 0.0
2016-Jul-14 02:13N 39°45' W 074°07'0 0.0
2016-Jul-14 01:31N 39°45' W 074°07'0 0.0
2016-Jul-14 00:19N 39°45' W 074°07'0 0.0
2016-Jul-13 22:25N 39°45' W 074°07'0 0.0
2016-Jul-13 21:31N 39°45' W 074°07'0 0.0
2016-Jul-13 20:25N 39°45' W 074°07'0 0.0
2016-Jul-13 19:25N 39°45' W 074°07'0 0.0
2016-Jul-13 18:19N 39°45' W 074°07'0 0.0
2016-Jul-13 17:13N 39°45' W 074°07'0 0.0
2016-Jul-13 16:31N 39°45' W 074°07'0 0.0
2016-Jul-13 15:31N 39°45' W 074°07'0 0.0
2016-Jul-13 14:31N 39°45' W 074°07'0 0.0
2016-Jul-13 13:31N 39°45' W 074°07'0 0.1
2016-Jul-13 12:30N 39°45' W 074°07'0 0.0
2016-Jul-13 11:24N 39°45' W 074°07'0 0.0
2016-Jul-13 10:30N 39°45' W 074°07'0 0.0
2016-Jul-13 09:30N 39°45' W 074°07'0 0.0
2016-Jul-13 08:30N 39°45' W 074°07'0 0.0
2016-Jul-13 07:30N 39°45' W 074°07'0 0.0
2016-Jul-13 06:30N 39°45' W 074°07'0 0.0
2016-Jul-13 05:30N 39°45' W 074°07'0 0.0
2016-Jul-13 04:17N 39°45' W 074°07'5 6.4
2016-Jul-13 03:33N 39°45' W 074°01'4 0.2
2016-Jul-12 11:16N 39°46' W 073°56'6 8.1
2016-Jul-12 10:29N 39°46' W 074°04'2 2.2
2016-Jul-12 09:33N 39°45' W 074°07'0 0.0
2016-Jul-12 08:15N 39°45' W 074°07'0 0.0
2016-Jul-12 07:27N 39°45' W 074°07'0 0.0
2016-Jul-12 06:27N 39°45' W 074°07'0 0.0
2016-Jul-12 04:33N 39°45' W 074°07'0 0.0
2016-Jul-12 03:21N 39°45' W 074°07'0 0.0
2016-Jul-12 02:15N 39°45' W 074°07'0 0.0
2016-Jul-12 01:33N 39°45' W 074°07'0 0.0
2016-Jul-12 00:33N 39°45' W 074°07'0 0.0
2016-Jul-11 23:15N 39°45' W 074°07'0 0.0
2016-Jul-11 22:33N 39°45' W 074°07'0 0.0
2016-Jul-11 21:27N 39°45' W 074°07'0 0.0
2016-Jul-11 20:27N 39°45' W 074°07'0 0.0
2016-Jul-11 19:33N 39°45' W 074°07'0 0.0
2016-Jul-11 18:33N 39°45' W 074°07'0 0.0
2016-Jul-11 17:33N 39°45' W 074°07'0 0.0
2016-Jul-11 16:27N 39°45' W 074°07'0 0.0
2016-Jul-11 15:27N 39°45' W 074°07'0 0.0
2016-Jul-11 14:33N 39°45' W 074°07'0 0.0
2016-Jul-11 13:33N 39°45' W 074°07'0 0.0
2016-Jul-11 12:17N 39°45' W 074°07'0 0.0
2016-Jul-11 11:29N 39°45' W 074°07'0 0.0
2016-Jul-11 09:29N 39°45' W 074°07'0 0.0
2016-Jul-11 08:29N 39°45' W 074°07'0 0.0
2016-Jul-11 07:29N 39°45' W 074°07'0 0.0
2016-Jul-11 06:23N 39°45' W 074°07'0 0.0
2016-Jul-11 04:29N 39°45' W 074°07'0 0.0
2016-Jul-11 03:23N 39°45' W 074°07'0 0.0
2016-Jul-11 02:17N 39°45' W 074°07'0 0.0
2016-Jul-11 01:23N 39°45' W 074°07'0 0.0
2016-Jul-11 00:29N 39°45' W 074°07'0 0.0
2016-Jul-10 23:23N 39°45' W 074°07'0 0.0
2016-Jul-10 22:29N 39°45' W 074°07'0 0.0
2016-Jul-10 21:29N 39°45' W 074°07'0 0.0
2016-Jul-10 20:29N 39°45' W 074°07'0 0.0
2016-Jul-10 19:29N 39°45' W 074°07'0 0.0
2016-Jul-10 18:29N 39°45' W 074°07'0 0.0
2016-Jul-10 17:29N 39°45' W 074°07'0 0.0
2016-Jul-10 16:29N 39°45' W 074°07'0 0.0
2016-Jul-10 15:29N 39°45' W 074°07'0 0.0
2016-Jul-10 14:29N 39°45' W 074°07'0 0.0
2016-Jul-10 13:29N 39°45' W 074°07'0 0.0
2016-Jul-10 12:23N 39°45' W 074°07'0 0.0
2016-Jul-10 11:29N 39°45' W 074°07'  
Track history (hours):
 
Tides and Currents Weather Stations Pressure Air Temp Water Temp Dewpoint Dewpoint Depression Visibility Wind Speed Wind Dir Waves Ship Positions

Lucky Thirteen

Owner: Kristine L Inc., Barnegat Light, NJ. More information available from US FCC via Universal Licensing System and Coast Guard Vessel Documentation Center.

Last reported at 2016-Jul-20 11:27 UTC. Time now 2016-Jul-24 08:47 UTC.
Position N 39°46' W 073°57'.

Length 23 m.

Type: Fishing. MMSI: 367300990.

Date/timePositionNaut miles runAvg speedWind from/ knotsBaromVisibWave heightAir tempDewpointWater temp
2016-Jul-20 11:27N 39°46' W 073°57'7 7.8
2016-Jul-20 10:32N 39°46' W 074°06'1 0.5
2016-Jul-20 08:28N 39°45' W 074°07'0 0.0
2016-Jul-20 06:28N 39°45' W 074°07'0 0.0
2016-Jul-20 05:22N 39°45' W 074°07'0 0.0
2016-Jul-20 04:28N 39°45' W 074°07'0 0.0
2016-Jul-20 02:28N 39°45' W 074°07'0 0.0
2016-Jul-19 19:28N 39°45' W 074°07'0 0.0
2016-Jul-19 18:28N 39°45' W 074°07'0 0.0
2016-Jul-19 17:16N 39°45' W 074°07'0 0.0
2016-Jul-19 16:28N 39°45' W 074°07'0 0.0
2016-Jul-19 15:28N 39°45' W 074°07'0 0.0
2016-Jul-19 14:28N 39°45' W 074°07'0 0.0
2016-Jul-19 12:28N 39°45' W 074°07'0 0.0
2016-Jul-19 11:33N 39°45' W 074°07'1 0.3
2016-Jul-19 09:33N 39°46' W 074°07'8 7.8
2016-Jul-19 08:30N 39°47' W 073°56'7 7.0
2016-Jul-19 07:33N 39°47' W 073°48'7 0.4
2016-Jul-18 12:25N 39°47' W 073°57'7 7.6
2016-Jul-18 11:30N 39°46' W 074°06'1 1.1
2016-Jul-18 10:27N 39°45' W 074°07'0 0.0
2016-Jul-18 09:33N 39°45' W 074°07'0 0.0
2016-Jul-18 08:33N 39°45' W 074°07'0 0.0
2016-Jul-18 07:21N 39°45' W 074°07'0 0.0
2016-Jul-18 06:15N 39°45' W 074°07'0 0.0
2016-Jul-18 05:33N 39°45' W 074°07'0 0.0
2016-Jul-18 04:33N 39°45' W 074°07'0 0.0
2016-Jul-18 03:27N 39°45' W 074°07'0 0.0
2016-Jul-18 02:33N 39°45' W 074°07'0 0.0
2016-Jul-17 21:03N 39°45' W 074°07'0 0.0
2016-Jul-17 20:03N 39°45' W 074°07'0 0.0
2016-Jul-17 19:33N 39°45' W 074°07'0 0.0
2016-Jul-17 18:21N 39°45' W 074°07'0 0.0
2016-Jul-17 16:27N 39°45' W 074°07'0 0.0
2016-Jul-17 15:27N 39°45' W 074°07'0 0.0
2016-Jul-17 13:21N 39°45' W 074°07'0 0.0
2016-Jul-17 11:04N 39°45' W 074°07'0 0.0
2016-Jul-17 09:33N 39°45' W 074°07'0 0.0
2016-Jul-17 08:22N 39°45' W 074°07'0 0.0
2016-Jul-17 07:04N 39°45' W 074°07'0 0.0
2016-Jul-17 06:16N 39°45' W 074°07'0 0.0
2016-Jul-17 04:28N 39°45' W 074°07'0 0.0
2016-Jul-17 03:16N 39°45' W 074°07'0 0.0
2016-Jul-17 02:16N 39°45' W 074°07'0 0.0
2016-Jul-17 01:22N 39°45' W 074°07'0 0.0
2016-Jul-17 00:04N 39°45' W 074°07'0 0.0
2016-Jul-16 22:22N 39°45' W 074°07'0 0.0
2016-Jul-16 21:28N 39°45' W 074°07'0 0.0
2016-Jul-16 20:28N 39°45' W 074°07'0 0.0
2016-Jul-16 19:16N 39°45' W 074°07'0 0.0
2016-Jul-16 18:28N 39°45' W 074°07'0 0.0
2016-Jul-16 17:28N 39°45' W 074°07'0 0.0
2016-Jul-16 15:04N 39°45' W 074°07'0 0.0
2016-Jul-16 14:22N 39°45' W 074°07'0 0.0
2016-Jul-16 13:28N 39°45' W 074°07'0 0.0
2016-Jul-16 12:28N 39°45' W 074°07'0 0.0
2016-Jul-16 11:28N 39°45' W 074°07'0 0.0
2016-Jul-16 10:28N 39°45' W 074°07'0 0.0
2016-Jul-16 09:28N 39°45' W 074°07'0 0.0
2016-Jul-16 08:28N 39°45' W 074°07'0 0.0
2016-Jul-16 07:22N 39°45' W 074°07'0 0.0
2016-Jul-16 06:30N 39°45' W 074°07'9 4.5
2016-Jul-16 04:31N 39°45' W 073°55'4 0.2
2016-Jul-15 10:32N 39°48' W 073°52'9 8.5
2016-Jul-15 09:29N 39°46' W 074°04'3 2.5
2016-Jul-15 08:25N 39°45' W 074°07'0 0.0
2016-Jul-15 07:31N 39°45' W 074°07'0 0.0
2016-Jul-15 06:19N 39°45' W 074°07'0 0.0
2016-Jul-15 05:31N 39°45' W 074°07'0 0.0
2016-Jul-15 04:31N 39°45' W 074°07'0 0.0
2016-Jul-15 03:19N 39°45' W 074°07'0 0.0
2016-Jul-15 02:07N 39°45' W 074°07'0 0.0
2016-Jul-15 01:31N 39°45' W 074°07'0 0.0
2016-Jul-15 00:19N 39°45' W 074°07'0 0.0
2016-Jul-14 23:25N 39°45' W 074°07'0 0.0
2016-Jul-14 22:25N 39°45' W 074°07'0 0.0
2016-Jul-14 21:31N 39°45' W 074°07'0 0.0
2016-Jul-14 20:31N 39°45' W 074°07'0 0.0
2016-Jul-14 19:13N 39°45' W 074°07'0 0.0
2016-Jul-14 18:31N 39°45' W 074°07'0 0.0
2016-Jul-14 17:31N 39°45' W 074°07'0 0.0
2016-Jul-14 16:07N 39°45' W 074°07'0 0.0
2016-Jul-14 15:31N 39°45' W 074°07'0 0.0
2016-Jul-14 14:25N 39°45' W 074°07'0 0.0
2016-Jul-14 13:31N 39°45' W 074°07'0 0.0
2016-Jul-14 12:19N 39°45' W 074°07'0 0.0
2016-Jul-14 11:13N 39°45' W 074°07'0 0.0
2016-Jul-14 10:19N 39°45' W 074°07'0 0.0
2016-Jul-14 09:31N 39°45' W 074°07'0 0.0
2016-Jul-14 08:31N 39°45' W 074°07'0 0.0
2016-Jul-14 07:25N 39°45' W 074°07'0 0.0
2016-Jul-14 06:31N 39°45' W 074°07'0 0.0
2016-Jul-14 05:31N 39°45' W 074°07'0 0.0
2016-Jul-14 04:31N 39°45' W 074°07'0 0.0
2016-Jul-14 02:13N 39°45' W 074°07'0 0.0
2016-Jul-14 01:31N 39°45' W 074°07'0 0.0
2016-Jul-14 00:19N 39°45' W 074°07'0 0.0
2016-Jul-13 22:25N 39°45' W 074°07'0 0.0
2016-Jul-13 21:31N 39°45' W 074°07'0 0.0
2016-Jul-13 20:25N 39°45' W 074°07'0 0.0
2016-Jul-13 19:25N 39°45' W 074°07'0 0.0
2016-Jul-13 18:19N 39°45' W 074°07'0 0.0
2016-Jul-13 17:13N 39°45' W 074°07'0 0.0
2016-Jul-13 16:31N 39°45' W 074°07'0 0.0
2016-Jul-13 15:31N 39°45' W 074°07'0 0.0
2016-Jul-13 14:31N 39°45' W 074°07'0 0.0
2016-Jul-13 13:31N 39°45' W 074°07'0 0.1
2016-Jul-13 12:30N 39°45' W 074°07'0 0.0
2016-Jul-13 11:24N 39°45' W 074°07'0 0.0
2016-Jul-13 10:30N 39°45' W 074°07'0 0.0
2016-Jul-13 09:30N 39°45' W 074°07'0 0.0
2016-Jul-13 08:30N 39°45' W 074°07'0 0.0
2016-Jul-13 07:30N 39°45' W 074°07'0 0.0
2016-Jul-13 06:30N 39°45' W 074°07'0 0.0
2016-Jul-13 05:30N 39°45' W 074°07'0 0.0
2016-Jul-13 04:17N 39°45' W 074°07'5 6.4
2016-Jul-13 03:33N 39°45' W 074°01'4 0.2
2016-Jul-12 11:16N 39°46' W 073°56'6 8.1
2016-Jul-12 10:29N 39°46' W 074°04'2 2.2
2016-Jul-12 09:33N 39°45' W 074°07'0 0.0
2016-Jul-12 08:15N 39°45' W 074°07'0 0.0
2016-Jul-12 07:27N 39°45' W 074°07'0 0.0
2016-Jul-12 06:27N 39°45' W 074°07'0 0.0
2016-Jul-12 04:33N 39°45' W 074°07'0 0.0
2016-Jul-12 03:21N 39°45' W 074°07'0 0.0
2016-Jul-12 02:15N 39°45' W 074°07'0 0.0
2016-Jul-12 01:33N 39°45' W 074°07'0 0.0
2016-Jul-12 00:33N 39°45' W 074°07'0 0.0
2016-Jul-11 23:15N 39°45' W 074°07'0 0.0
2016-Jul-11 22:33N 39°45' W 074°07'0 0.0
2016-Jul-11 21:27N 39°45' W 074°07'0 0.0
2016-Jul-11 20:27N 39°45' W 074°07'0 0.0
2016-Jul-11 19:33N 39°45' W 074°07'0 0.0
2016-Jul-11 18:33N 39°45' W 074°07'0 0.0
2016-Jul-11 17:33N 39°45' W 074°07'0 0.0
2016-Jul-11 16:27N 39°45' W 074°07'0 0.0
2016-Jul-11 15:27N 39°45' W 074°07'0 0.0
2016-Jul-11 14:33N 39°45' W 074°07'0 0.0
2016-Jul-11 13:33N 39°45' W 074°07'0 0.0
2016-Jul-11 12:17N 39°45' W 074°07'0 0.0
2016-Jul-11 11:29N 39°45' W 074°07'0 0.0
2016-Jul-11 09:29N 39°45' W 074°07'0 0.0
2016-Jul-11 08:29N 39°45' W 074°07'0 0.0
2016-Jul-11 07:29N 39°45' W 074°07'0 0.0
2016-Jul-11 06:23N 39°45' W 074°07'0 0.0
2016-Jul-11 04:29N 39°45' W 074°07'0 0.0
2016-Jul-11 03:23N 39°45' W 074°07'0 0.0
2016-Jul-11 02:17N 39°45' W 074°07'0 0.0
2016-Jul-11 01:23N 39°45' W 074°07'0 0.0
2016-Jul-11 00:29N 39°45' W 074°07'0 0.0
2016-Jul-10 23:23N 39°45' W 074°07'0 0.0
2016-Jul-10 22:29N 39°45' W 074°07'0 0.0
2016-Jul-10 21:29N 39°45' W 074°07'0 0.0
2016-Jul-10 20:29N 39°45' W 074°07'0 0.0
2016-Jul-10 19:29N 39°45' W 074°07'0 0.0
2016-Jul-10 18:29N 39°45' W 074°07'0 0.0
2016-Jul-10 17:29N 39°45' W 074°07'0 0.0
2016-Jul-10 16:29N 39°45' W 074°07'0 0.0
2016-Jul-10 15:29N 39°45' W 074°07'0 0.0
2016-Jul-10 14:29N 39°45' W 074°07'0 0.0
2016-Jul-10 13:29N 39°45' W 074°07'0 0.0
2016-Jul-10 12:23N 39°45' W 074°07'0 0.0
2016-Jul-10 11:29N 39°45' W 074°07'  

Dump ship's entire track history